sensor_id;sensor_type;location;lat;lon;timestamp;P1;durP1;ratioP1;P2;durP2;ratioP2
45382;SDS011;42455;51.660;5.824;2023-11-21T00:00:33;23.5;;;17.0;;
45382;SDS011;42455;51.660;5.824;2023-11-21T00:05:39;23.0;;;17.0;;
45382;SDS011;42455;51.660;5.824;2023-11-21T00:10:45;22.0;;;16.0;;
45382;SDS011;42455;51.660;5.824;2023-11-21T00:15:52;22.0;;;17.0;;
45382;SDS011;42455;51.660;5.824;2023-11-21T00:20:58;20.0;;;16.0;;
45382;SDS011;42455;51.660;5.824;2023-11-21T00:26:04;25.0;;;17.0;;
45382;SDS011;42455;51.660;5.824;2023-11-21T00:31:10;21.0;;;16.0;;
45382;SDS011;42455;51.660;5.824;2023-11-21T00:36:16;20.0;;;16.0;;
45382;SDS011;42455;51.660;5.824;2023-11-21T00:41:23;21.0;;;16.0;;
45382;SDS011;42455;51.660;5.824;2023-11-21T00:46:29;23.0;;;17.0;;
45382;SDS011;42455;51.660;5.824;2023-11-21T00:51:35;22.0;;;16.0;;
45382;SDS011;42455;51.660;5.824;2023-11-21T00:56:41;23.0;;;16.0;;
45382;SDS011;42455;51.660;5.824;2023-11-21T01:01:48;24.0;;;17.0;;
45382;SDS011;42455;51.660;5.824;2023-11-21T01:06:54;21.5;;;17.0;;
45382;SDS011;42455;51.660;5.824;2023-11-21T01:12:00;23.0;;;17.0;;
45382;SDS011;42455;51.660;5.824;2023-11-21T01:17:06;21.0;;;17.0;;
45382;SDS011;42455;51.660;5.824;2023-11-21T01:22:12;23.0;;;17.0;;
45382;SDS011;42455;51.660;5.824;2023-11-21T01:27:19;23.0;;;17.0;;
45382;SDS011;42455;51.660;5.824;2023-11-21T01:32:25;27.0;;;18.0;;
45382;SDS011;42455;51.660;5.824;2023-11-21T01:37:31;24.0;;;18.0;;
45382;SDS011;42455;51.660;5.824;2023-11-21T01:42:37;23.5;;;18.0;;
45382;SDS011;42455;51.660;5.824;2023-11-21T01:47:44;27.0;;;19.0;;
45382;SDS011;42455;51.660;5.824;2023-11-21T01:52:50;27.5;;;19.5;;
45382;SDS011;42455;51.660;5.824;2023-11-21T01:57:56;29.0;;;19.0;;
45382;SDS011;42455;51.660;5.824;2023-11-21T02:03:02;30.0;;;21.0;;
45382;SDS011;42455;51.660;5.824;2023-11-21T02:08:08;34.0;;;21.0;;
45382;SDS011;42455;51.660;5.824;2023-11-21T02:13:14;38.0;;;22.0;;
45382;SDS011;42455;51.660;5.824;2023-11-21T02:18:21;47.0;;;22.0;;
45382;SDS011;42455;51.660;5.824;2023-11-21T02:23:27;52.0;;;23.0;;
45382;SDS011;42455;51.660;5.824;2023-11-21T02:28:33;46.5;;;22.0;;
45382;SDS011;42455;51.660;5.824;2023-11-21T02:33:39;66.0;;;22.0;;
45382;SDS011;42455;51.660;5.824;2023-11-21T02:38:45;41.0;;;21.0;;
45382;SDS011;42455;51.660;5.824;2023-11-21T02:43:52;37.5;;;20.5;;
45382;SDS011;42455;51.660;5.824;2023-11-21T02:48:58;58.5;;;21.0;;
45382;SDS011;42455;51.660;5.824;2023-11-21T02:54:05;72.0;;;21.0;;
45382;SDS011;42455;51.660;5.824;2023-11-21T02:59:10;53.0;;;20.0;;
45382;SDS011;42455;51.660;5.824;2023-11-21T03:04:17;27.0;;;21.0;;
45382;SDS011;42455;51.660;5.824;2023-11-21T03:09:23;46.0;;;20.0;;
45382;SDS011;42455;51.660;5.824;2023-11-21T03:14:29;40.5;;;20.0;;
45382;SDS011;42455;51.660;5.824;2023-11-21T03:19:35;42.0;;;20.0;;
45382;SDS011;42455;51.660;5.824;2023-11-21T03:24:41;55.5;;;22.0;;
45382;SDS011;42455;51.660;5.824;2023-11-21T03:29:48;34.0;;;21.0;;
45382;SDS011;42455;51.660;5.824;2023-11-21T03:34:59;78.5;;;23.0;;
45382;SDS011;42455;51.660;5.824;2023-11-21T03:40:00;48.5;;;22.0;;
45382;SDS011;42455;51.660;5.824;2023-11-21T03:45:06;50.0;;;21.0;;
45382;SDS011;42455;51.660;5.824;2023-11-21T03:50:12;55.0;;;22.0;;
45382;SDS011;42455;51.660;5.824;2023-11-21T03:55:19;40.0;;;21.0;;
45382;SDS011;42455;51.660;5.824;2023-11-21T04:00:25;49.0;;;22.0;;
45382;SDS011;42455;51.660;5.824;2023-11-21T04:05:31;57.0;;;22.0;;
45382;SDS011;42455;51.660;5.824;2023-11-21T04:10:37;45.0;;;21.0;;
45382;SDS011;42455;51.660;5.824;2023-11-21T04:15:44;59.0;;;22.0;;
45382;SDS011;42455;51.660;5.824;2023-11-21T04:20:50;37.5;;;22.0;;
45382;SDS011;42455;51.660;5.824;2023-11-21T04:25:56;34.0;;;21.0;;
45382;SDS011;42455;51.660;5.824;2023-11-21T04:31:02;45.5;;;21.0;;
45382;SDS011;42455;51.660;5.824;2023-11-21T04:36:08;25.0;;;20.0;;
45382;SDS011;42455;51.660;5.824;2023-11-21T04:41:14;56.0;;;20.0;;
45382;SDS011;42455;51.660;5.824;2023-11-21T04:46:21;30.0;;;20.0;;
45382;SDS011;42455;51.660;5.824;2023-11-21T04:51:27;27.0;;;20.0;;
45382;SDS011;42455;51.660;5.824;2023-11-21T04:56:33;32.0;;;22.0;;
45382;SDS011;42455;51.660;5.824;2023-11-21T05:01:38;34.0;;;21.5;;
45382;SDS011;42455;51.660;5.824;2023-11-21T05:06:45;36.0;;;22.0;;
45382;SDS011;42455;51.660;5.824;2023-11-21T05:11:51;37.5;;;22.0;;
45382;SDS011;42455;51.660;5.824;2023-11-21T05:16:57;37.0;;;22.0;;
45382;SDS011;42455;51.660;5.824;2023-11-21T05:22:03;38.0;;;22.0;;
45382;SDS011;42455;51.660;5.824;2023-11-21T05:27:09;33.0;;;23.0;;
45382;SDS011;42455;51.660;5.824;2023-11-21T05:32:16;30.0;;;22.0;;
45382;SDS011;42455;51.660;5.824;2023-11-21T05:37:22;28.0;;;21.0;;
45382;SDS011;42455;51.660;5.824;2023-11-21T05:42:28;32.0;;;22.0;;
45382;SDS011;42455;51.660;5.824;2023-11-21T05:47:35;32.5;;;21.5;;
45382;SDS011;42455;51.660;5.824;2023-11-21T05:52:41;31.5;;;22.0;;
45382;SDS011;42455;51.660;5.824;2023-11-21T05:57:47;30.0;;;21.0;;
45382;SDS011;42455;51.660;5.824;2023-11-21T06:02:53;30.0;;;22.0;;
45382;SDS011;42455;51.660;5.824;2023-11-21T06:07:59;29.5;;;22.0;;
45382;SDS011;42455;51.660;5.824;2023-11-21T06:13:05;28.0;;;21.0;;
45382;SDS011;42455;51.660;5.824;2023-11-21T06:18:12;27.0;;;21.0;;
45382;SDS011;42455;51.660;5.824;2023-11-21T06:23:18;26.0;;;20.0;;
45382;SDS011;42455;51.660;5.824;2023-11-21T06:28:24;25.0;;;20.0;;
45382;SDS011;42455;51.660;5.824;2023-11-21T06:33:30;27.5;;;21.0;;
45382;SDS011;42455;51.660;5.824;2023-11-21T06:38:36;26.0;;;21.0;;
45382;SDS011;42455;51.660;5.824;2023-11-21T06:43:42;24.0;;;19.5;;
45382;SDS011;42455;51.660;5.824;2023-11-21T06:48:49;24.0;;;21.0;;
45382;SDS011;42455;51.660;5.824;2023-11-21T06:53:55;23.0;;;20.0;;
45382;SDS011;42455;51.660;5.824;2023-11-21T06:59:01;24.5;;;20.0;;
45382;SDS011;42455;51.660;5.824;2023-11-21T07:04:07;23.0;;;20.0;;
45382;SDS011;42455;51.660;5.824;2023-11-21T07:09:14;23.0;;;20.0;;
45382;SDS011;42455;51.660;5.824;2023-11-21T07:14:20;25.0;;;21.0;;
45382;SDS011;42455;51.660;5.824;2023-11-21T07:19:26;25.0;;;21.0;;
45382;SDS011;42455;51.660;5.824;2023-11-21T07:24:32;23.0;;;21.0;;
45382;SDS011;42455;51.660;5.824;2023-11-21T07:29:38;25.0;;;21.0;;
45382;SDS011;42455;51.660;5.824;2023-11-21T07:34:45;25.0;;;22.0;;
45382;SDS011;42455;51.660;5.824;2023-11-21T07:39:51;26.5;;;22.0;;
45382;SDS011;42455;51.660;5.824;2023-11-21T07:44:57;24.0;;;22.0;;
45382;SDS011;42455;51.660;5.824;2023-11-21T07:50:04;24.0;;;22.0;;
45382;SDS011;42455;51.660;5.824;2023-11-21T07:55:09;25.0;;;22.0;;
45382;SDS011;42455;51.660;5.824;2023-11-21T08:05:22;25.0;;;22.0;;
45382;SDS011;42455;51.660;5.824;2023-11-21T08:10:28;26.0;;;22.0;;
45382;SDS011;42455;51.660;5.824;2023-11-21T08:15:34;25.5;;;22.0;;
45382;SDS011;42455;51.660;5.824;2023-11-21T08:20:41;24.0;;;22.0;;
45382;SDS011;42455;51.660;5.824;2023-11-21T08:25:47;25.0;;;22.0;;
45382;SDS011;42455;51.660;5.824;2023-11-21T08:30:53;25.0;;;21.0;;
45382;SDS011;42455;51.660;5.824;2023-11-21T08:35:59;25.0;;;22.0;;
45382;SDS011;42455;51.660;5.824;2023-11-21T08:41:05;24.5;;;21.0;;
45382;SDS011;42455;51.660;5.824;2023-11-21T08:46:11;26.0;;;21.5;;
45382;SDS011;42455;51.660;5.824;2023-11-21T08:51:18;24.0;;;21.0;;
45382;SDS011;42455;51.660;5.824;2023-11-21T08:56:24;24.0;;;21.0;;
45382;SDS011;42455;51.660;5.824;2023-11-21T09:01:30;23.5;;;20.0;;
45382;SDS011;42455;51.660;5.824;2023-11-21T09:06:36;27.0;;;21.0;;
45382;SDS011;42455;51.660;5.824;2023-11-21T09:11:43;24.0;;;20.0;;
45382;SDS011;42455;51.660;5.824;2023-11-21T09:16:49;25.5;;;21.0;;
45382;SDS011;42455;51.660;5.824;2023-11-21T09:21:55;26.0;;;20.0;;
45382;SDS011;42455;51.660;5.824;2023-11-21T09:27:01;24.0;;;20.0;;
45382;SDS011;42455;51.660;5.824;2023-11-21T09:32:07;26.0;;;20.5;;
45382;SDS011;42455;51.660;5.824;2023-11-21T09:37:14;27.5;;;22.0;;
45382;SDS011;42455;51.660;5.824;2023-11-21T09:42:43;27.0;;;21.0;;
45382;SDS011;42455;51.660;5.824;2023-11-21T09:47:26;32.0;;;22.0;;
45382;SDS011;42455;51.660;5.824;2023-11-21T09:52:32;33.0;;;23.0;;
45382;SDS011;42455;51.660;5.824;2023-11-21T09:57:38;32.5;;;24.0;;
45382;SDS011;42455;51.660;5.824;2023-11-21T10:02:45;33.0;;;24.0;;
45382;SDS011;42455;51.660;5.824;2023-11-21T10:07:51;34.0;;;24.0;;
45382;SDS011;42455;51.660;5.824;2023-11-21T10:13:01;36.0;;;26.0;;
45382;SDS011;42455;51.660;5.824;2023-11-21T10:18:04;36.0;;;26.5;;
45382;SDS011;42455;51.660;5.824;2023-11-21T10:23:10;35.0;;;25.5;;
45382;SDS011;42455;51.660;5.824;2023-11-21T10:28:16;39.0;;;27.0;;
45382;SDS011;42455;51.660;5.824;2023-11-21T10:33:27;36.0;;;26.5;;
45382;SDS011;42455;51.660;5.824;2023-11-21T10:38:27;37.0;;;27.0;;
45382;SDS011;42455;51.660;5.824;2023-11-21T10:43:33;35.0;;;26.0;;
45382;SDS011;42455;51.660;5.824;2023-11-21T10:48:39;36.0;;;26.0;;
45382;SDS011;42455;51.660;5.824;2023-11-21T10:53:46;34.5;;;26.0;;
45382;SDS011;42455;51.660;5.824;2023-11-21T10:58:52;39.0;;;27.5;;
45382;SDS011;42455;51.660;5.824;2023-11-21T11:03:58;41.0;;;28.0;;
45382;SDS011;42455;51.660;5.824;2023-11-21T11:09:04;44.0;;;30.0;;
45382;SDS011;42455;51.660;5.824;2023-11-21T11:14:11;45.0;;;30.0;;
45382;SDS011;42455;51.660;5.824;2023-11-21T11:19:17;41.0;;;28.0;;
45382;SDS011;42455;51.660;5.824;2023-11-21T11:27:20;39.0;;;28.0;;
45382;SDS011;42455;51.660;5.824;2023-11-21T11:35:19;37.0;;;27.5;;
45382;SDS011;42455;51.660;5.824;2023-11-21T11:37:25;34.0;;;26.0;;
45382;SDS011;42455;51.660;5.824;2023-11-21T11:39:42;34.0;;;25.0;;
45382;SDS011;42455;51.660;5.824;2023-11-21T11:44:56;30.0;;;23.0;;
45382;SDS011;42455;51.660;5.824;2023-11-21T11:49:56;29.0;;;23.0;;
45382;SDS011;42455;51.660;5.824;2023-11-21T11:55:00;30.0;;;23.0;;
45382;SDS011;42455;51.660;5.824;2023-11-21T12:00:13;28.0;;;21.0;;
45382;SDS011;42455;51.660;5.824;2023-11-21T12:05:14;29.0;;;22.0;;
45382;SDS011;42455;51.660;5.824;2023-11-21T12:10:20;29.0;;;23.0;;
45382;SDS011;42455;51.660;5.824;2023-11-21T12:15:25;34.0;;;24.5;;
45382;SDS011;42455;51.660;5.824;2023-11-21T12:20:31;34.0;;;24.0;;
45382;SDS011;42455;51.660;5.824;2023-11-21T12:25:38;34.0;;;24.0;;
45382;SDS011;42455;51.660;5.824;2023-11-21T12:30:44;36.0;;;25.0;;
45382;SDS011;42455;51.660;5.824;2023-11-21T12:35:50;35.5;;;24.0;;
45382;SDS011;42455;51.660;5.824;2023-11-21T12:40:56;35.5;;;24.0;;
45382;SDS011;42455;51.660;5.824;2023-11-21T12:46:05;33.0;;;23.0;;
45382;SDS011;42455;51.660;5.824;2023-11-21T12:51:09;32.0;;;23.0;;
45382;SDS011;42455;51.660;5.824;2023-11-21T12:56:15;27.0;;;20.0;;
45382;SDS011;42455;51.660;5.824;2023-11-21T13:01:21;28.0;;;20.5;;
45382;SDS011;42455;51.660;5.824;2023-11-21T13:06:27;26.0;;;20.0;;
45382;SDS011;42455;51.660;5.824;2023-11-21T13:11:33;29.0;;;21.0;;
45382;SDS011;42455;51.660;5.824;2023-11-21T13:16:40;27.0;;;20.0;;
45382;SDS011;42455;51.660;5.824;2023-11-21T13:21:46;26.5;;;19.5;;
45382;SDS011;42455;51.660;5.824;2023-11-21T13:26:52;27.0;;;20.0;;
45382;SDS011;42455;51.660;5.824;2023-11-21T13:31:58;25.0;;;20.0;;
45382;SDS011;42455;51.660;5.824;2023-11-21T13:37:04;24.0;;;18.0;;
45382;SDS011;42455;51.660;5.824;2023-11-21T13:42:11;20.5;;;15.5;;
45382;SDS011;42455;51.660;5.824;2023-11-21T13:47:17;16.0;;;14.0;;
45382;SDS011;42455;51.660;5.824;2023-11-21T13:52:23;17.0;;;13.0;;
45382;SDS011;42455;51.660;5.824;2023-11-21T13:57:29;13.0;;;11.0;;
45382;SDS011;42455;51.660;5.824;2023-11-21T14:02:35;12.0;;;11.0;;
45382;SDS011;42455;51.660;5.824;2023-11-21T14:07:42;13.0;;;11.0;;
45382;SDS011;42455;51.660;5.824;2023-11-21T14:17:54;14.0;;;12.0;;
45382;SDS011;42455;51.660;5.824;2023-11-21T14:23:00;16.0;;;14.0;;
45382;SDS011;42455;51.660;5.824;2023-11-21T14:28:07;19.0;;;16.0;;
45382;SDS011;42455;51.660;5.824;2023-11-21T14:33:13;19.0;;;16.0;;
45382;SDS011;42455;51.660;5.824;2023-11-21T14:38:19;20.0;;;16.0;;
45382;SDS011;42455;51.660;5.824;2023-11-21T14:43:25;19.5;;;16.0;;
45382;SDS011;42455;51.660;5.824;2023-11-21T14:48:31;20.0;;;16.0;;
45382;SDS011;42455;51.660;5.824;2023-11-21T14:53:37;19.0;;;15.0;;
45382;SDS011;42455;51.660;5.824;2023-11-21T14:58:44;19.5;;;15.0;;
45382;SDS011;42455;51.660;5.824;2023-11-21T15:03:50;19.0;;;15.0;;
45382;SDS011;42455;51.660;5.824;2023-11-21T15:08:57;21.0;;;15.0;;
45382;SDS011;42455;51.660;5.824;2023-11-21T15:14:02;20.0;;;15.0;;
45382;SDS011;42455;51.660;5.824;2023-11-21T15:19:09;19.0;;;14.0;;
45382;SDS011;42455;51.660;5.824;2023-11-21T15:24:15;19.0;;;14.0;;
45382;SDS011;42455;51.660;5.824;2023-11-21T15:29:21;14.0;;;11.0;;
45382;SDS011;42455;51.660;5.824;2023-11-21T15:34:27;14.0;;;11.0;;
45382;SDS011;42455;51.660;5.824;2023-11-21T15:39:33;14.0;;;10.0;;
45382;SDS011;42455;51.660;5.824;2023-11-21T15:44:40;13.0;;;9.0;;
45382;SDS011;42455;51.660;5.824;2023-11-21T15:49:46;13.0;;;10.0;;
45382;SDS011;42455;51.660;5.824;2023-11-21T15:54:52;13.0;;;10.0;;
45382;SDS011;42455;51.660;5.824;2023-11-21T15:59:58;13.0;;;10.0;;
45382;SDS011;42455;51.660;5.824;2023-11-21T16:05:04;15.0;;;11.0;;
45382;SDS011;42455;51.660;5.824;2023-11-21T16:10:10;15.5;;;12.0;;
45382;SDS011;42455;51.660;5.824;2023-11-21T16:15:16;15.0;;;12.0;;
45382;SDS011;42455;51.660;5.824;2023-11-21T16:20:22;18.0;;;15.0;;
45382;SDS011;42455;51.660;5.824;2023-11-21T16:25:29;16.0;;;14.0;;
45382;SDS011;42455;51.660;5.824;2023-11-21T16:30:34;16.0;;;14.5;;
45382;SDS011;42455;51.660;5.824;2023-11-21T16:35:40;15.0;;;14.0;;
45382;SDS011;42455;51.660;5.824;2023-11-21T16:40:46;16.0;;;14.0;;
45382;SDS011;42455;51.660;5.824;2023-11-21T16:45:52;15.0;;;14.0;;
45382;SDS011;42455;51.660;5.824;2023-11-21T16:50:58;15.0;;;13.0;;
45382;SDS011;42455;51.660;5.824;2023-11-21T16:56:05;13.0;;;12.0;;
45382;SDS011;42455;51.660;5.824;2023-11-21T17:01:11;13.0;;;12.0;;
45382;SDS011;42455;51.660;5.824;2023-11-21T17:06:17;13.0;;;12.0;;
45382;SDS011;42455;51.660;5.824;2023-11-21T17:11:23;13.0;;;12.0;;
45382;SDS011;42455;51.660;5.824;2023-11-21T17:16:29;14.0;;;13.0;;
45382;SDS011;42455;51.660;5.824;2023-11-21T17:21:36;15.0;;;14.0;;
45382;SDS011;42455;51.660;5.824;2023-11-21T17:26:43;16.0;;;14.0;;
45382;SDS011;42455;51.660;5.824;2023-11-21T17:31:49;15.0;;;14.0;;
45382;SDS011;42455;51.660;5.824;2023-11-21T17:36:54;16.0;;;14.5;;
45382;SDS011;42455;51.660;5.824;2023-11-21T17:42:00;16.0;;;14.0;;
45382;SDS011;42455;51.660;5.824;2023-11-21T17:47:07;15.0;;;14.0;;
45382;SDS011;42455;51.660;5.824;2023-11-21T17:52:13;14.0;;;13.0;;
45382;SDS011;42455;51.660;5.824;2023-11-21T17:57:19;15.0;;;14.0;;
45382;SDS011;42455;51.660;5.824;2023-11-21T18:02:25;15.0;;;13.0;;
45382;SDS011;42455;51.660;5.824;2023-11-21T18:07:32;15.0;;;13.0;;
45382;SDS011;42455;51.660;5.824;2023-11-21T18:12:38;14.0;;;13.0;;
45382;SDS011;42455;51.660;5.824;2023-11-21T18:17:44;14.0;;;13.0;;
45382;SDS011;42455;51.660;5.824;2023-11-21T18:22:50;14.0;;;13.0;;
45382;SDS011;42455;51.660;5.824;2023-11-21T18:27:56;14.0;;;12.0;;
45382;SDS011;42455;51.660;5.824;2023-11-21T18:33:02;14.0;;;13.0;;
45382;SDS011;42455;51.660;5.824;2023-11-21T18:38:09;14.0;;;13.0;;
45382;SDS011;42455;51.660;5.824;2023-11-21T18:43:15;15.0;;;13.0;;
45382;SDS011;42455;51.660;5.824;2023-11-21T18:48:21;15.0;;;13.0;;
45382;SDS011;42455;51.660;5.824;2023-11-21T18:53:27;14.0;;;13.0;;
45382;SDS011;42455;51.660;5.824;2023-11-21T18:58:34;14.5;;;13.0;;
45382;SDS011;42455;51.660;5.824;2023-11-21T19:03:41;15.0;;;14.0;;
45382;SDS011;42455;51.660;5.824;2023-11-21T19:08:46;15.0;;;13.0;;
45382;SDS011;42455;51.660;5.824;2023-11-21T19:13:52;14.0;;;13.0;;
45382;SDS011;42455;51.660;5.824;2023-11-21T19:18:58;15.0;;;14.0;;
45382;SDS011;42455;51.660;5.824;2023-11-21T19:24:05;15.0;;;13.0;;
45382;SDS011;42455;51.660;5.824;2023-11-21T19:29:11;15.0;;;13.5;;
45382;SDS011;42455;51.660;5.824;2023-11-21T19:34:17;15.0;;;14.0;;
45382;SDS011;42455;51.660;5.824;2023-11-21T19:39:23;15.0;;;13.0;;
45382;SDS011;42455;51.660;5.824;2023-11-21T19:44:30;14.0;;;13.0;;
45382;SDS011;42455;51.660;5.824;2023-11-21T19:49:36;15.0;;;13.0;;
45382;SDS011;42455;51.660;5.824;2023-11-21T19:59:48;14.0;;;13.0;;
45382;SDS011;42455;51.660;5.824;2023-11-21T20:04:54;13.5;;;12.0;;
45382;SDS011;42455;51.660;5.824;2023-11-21T20:10:00;14.0;;;12.0;;
45382;SDS011;42455;51.660;5.824;2023-11-21T20:15:07;13.5;;;12.0;;
45382;SDS011;42455;51.660;5.824;2023-11-21T20:20:13;14.0;;;12.0;;
45382;SDS011;42455;51.660;5.824;2023-11-21T20:25:19;14.0;;;12.0;;
45382;SDS011;42455;51.660;5.824;2023-11-21T20:30:25;13.0;;;12.0;;
45382;SDS011;42455;51.660;5.824;2023-11-21T20:35:32;13.0;;;12.0;;
45382;SDS011;42455;51.660;5.824;2023-11-21T20:40:38;13.0;;;12.0;;
45382;SDS011;42455;51.660;5.824;2023-11-21T20:45:44;14.0;;;12.0;;
45382;SDS011;42455;51.660;5.824;2023-11-21T20:50:50;14.0;;;12.0;;
45382;SDS011;42455;51.660;5.824;2023-11-21T20:55:56;14.0;;;13.0;;
45382;SDS011;42455;51.660;5.824;2023-11-21T21:01:03;14.0;;;13.0;;
45382;SDS011;42455;51.660;5.824;2023-11-21T21:06:09;14.0;;;12.5;;
45382;SDS011;42455;51.660;5.824;2023-11-21T21:11:17;14.0;;;13.0;;
45382;SDS011;42455;51.660;5.824;2023-11-21T21:16:21;14.0;;;13.0;;
45382;SDS011;42455;51.660;5.824;2023-11-21T21:21:31;14.0;;;13.0;;
45382;SDS011;42455;51.660;5.824;2023-11-21T21:26:34;14.0;;;12.5;;
45382;SDS011;42455;51.660;5.824;2023-11-21T21:31:40;14.0;;;12.0;;
45382;SDS011;42455;51.660;5.824;2023-11-21T21:36:46;13.0;;;12.0;;
45382;SDS011;42455;51.660;5.824;2023-11-21T21:41:52;14.0;;;13.0;;
45382;SDS011;42455;51.660;5.824;2023-11-21T21:46:58;14.0;;;12.0;;
45382;SDS011;42455;51.660;5.824;2023-11-21T21:52:05;14.0;;;13.0;;
45382;SDS011;42455;51.660;5.824;2023-11-21T21:57:11;14.5;;;13.0;;
45382;SDS011;42455;51.660;5.824;2023-11-21T22:02:17;15.0;;;14.0;;
45382;SDS011;42455;51.660;5.824;2023-11-21T22:07:22;15.0;;;13.0;;
45382;SDS011;42455;51.660;5.824;2023-11-21T22:12:28;16.0;;;14.0;;
45382;SDS011;42455;51.660;5.824;2023-11-21T22:17:35;15.0;;;14.0;;
45382;SDS011;42455;51.660;5.824;2023-11-21T22:22:41;17.0;;;15.0;;
45382;SDS011;42455;51.660;5.824;2023-11-21T22:27:47;17.0;;;15.0;;
45382;SDS011;42455;51.660;5.824;2023-11-21T22:32:53;18.0;;;15.0;;
45382;SDS011;42455;51.660;5.824;2023-11-21T22:37:59;16.0;;;15.0;;
45382;SDS011;42455;51.660;5.824;2023-11-21T22:43:06;18.0;;;16.0;;
45382;SDS011;42455;51.660;5.824;2023-11-21T22:48:12;18.0;;;15.0;;
45382;SDS011;42455;51.660;5.824;2023-11-21T22:53:18;17.0;;;15.0;;
45382;SDS011;42455;51.660;5.824;2023-11-21T22:58:24;17.0;;;15.0;;
45382;SDS011;42455;51.660;5.824;2023-11-21T23:03:31;18.0;;;15.0;;
45382;SDS011;42455;51.660;5.824;2023-11-21T23:08:37;18.0;;;15.0;;
45382;SDS011;42455;51.660;5.824;2023-11-21T23:13:43;17.5;;;15.0;;
45382;SDS011;42455;51.660;5.824;2023-11-21T23:18:49;18.0;;;16.0;;
45382;SDS011;42455;51.660;5.824;2023-11-21T23:23:55;18.0;;;15.0;;
45382;SDS011;42455;51.660;5.824;2023-11-21T23:29:02;17.0;;;15.0;;
45382;SDS011;42455;51.660;5.824;2023-11-21T23:34:08;18.0;;;15.0;;
45382;SDS011;42455;51.660;5.824;2023-11-21T23:39:14;19.0;;;16.0;;
45382;SDS011;42455;51.660;5.824;2023-11-21T23:44:20;18.0;;;15.5;;
45382;SDS011;42455;51.660;5.824;2023-11-21T23:49:26;19.0;;;16.0;;
45382;SDS011;42455;51.660;5.824;2023-11-21T23:54:33;19.0;;;16.0;;
45382;SDS011;42455;51.660;5.824;2023-11-21T23:59:39;18.0;;;15.0;;
